Latest Weather Observations for Ballarat

IDV60801

Issued at 9:52 pm EST Monday 18 June 2018 (issued every 10 minutes, with the page automatically refreshed every 10 minutes)

About weather observations | Map of weather stations | Latest weather observations for VIC | Other Formats
Station Details ID: 089002 Name: BALLARAT AERODROME Lat: -37.51 Lon: 143.79 Height: 435.2 m
Data from the previous 72 hours. | See also: Recent months at Ballarat
Date/Time
EST
Temp
°C
App
Temp
°C
Dew
Point
°C
Rel
Hum
%
Delta-T
°C
Wind Press
QNH
hPa
Press
MSL
hPa
Rain since
9am
mm
Dir  Spd
km/h
Gust
km/h
Spd
kts
Gust
kts
18/09:30pm 2.9 -1.1 2.6 98 0.1 S 13 15 7 8 1027.4 1028.2 0.0
18/09:00pm 3.4 -0.6 3.1 98 0.1 S 13 17 7 9 1027.4 1028.2 0.0
18/08:30pm 3.7 -0.2 3.4 98 0.1 S 13 17 7 9 1027.5 1028.3 0.0
18/08:00pm 3.9 0.4 3.6 98 0.1 S 11 13 6 7 1027.5 1028.3 0.0
18/07:30pm 4.4 1.0 4.1 98 0.1 S 11 13 6 7 1027.2 1028.0 0.0
18/07:00pm 4.9 1.4 3.4 90 0.6 SSW 11 15 6 8 1027.0 1027.8 0.0
18/06:30pm 5.9 2.0 3.2 83 1.2 SSW 13 20 7 11 1026.9 1027.7 0.0
18/06:00pm 6.3 1.2 3.1 80 1.4 S 19 24 10 13 1026.8 1027.6 0.0
18/05:30pm 6.4 1.8 3.6 82 1.2 S 17 22 9 12 1026.6 1027.4 0.0
18/05:00pm 7.3 3.2 4.1 80 1.4 S 15 19 8 10 1026.8 1027.6 0.0
18/04:30pm 7.5 2.5 3.6 76 1.7 SSW 19 30 10 16 1026.7 1027.5 0.0
18/04:00pm 7.9 2.8 4.1 77 1.7 S 20 28 11 15 1026.4 1027.2 0.0
18/03:30pm 7.9 3.0 4.1 77 1.7 S 19 32 10 17 1026.2 1027.0 0.0
18/03:00pm 8.0 2.5 4.0 76 1.8 S 22 30 12 16 1026.1 1026.9 0.0
18/02:30pm 8.2 2.7 4.2 76 1.8 S 22 32 12 17 1026.2 1027.0 0.0
18/02:00pm 8.2 1.5 3.7 73 2.0 S 28 39 15 21 1026.1 1026.9 0.0
18/01:30pm 8.3 1.0 4.7 78 1.6 S 32 41 17 22 1026.1 1026.9 0.0
18/01:00pm 7.9 3.3 5.4 84 1.1 S 19 30 10 16 1026.4 1027.2 0.0
18/12:30pm 7.2 3.2 6.8 97 0.2 S 17 24 9 13 1026.8 1027.6 0.0
18/12:24pm 7.0 2.9 6.4 96 0.3 SSW 17 24 9 13 1026.9 1027.7 0.0
18/12:09pm 7.1 3.5 6.8 98 0.1 SSW 15 20 8 11 1027.2 1028.0 0.0
18/12:00pm 6.9 2.5 6.5 97 0.2 S 19 24 10 13 1027.3 1028.1 0.0
18/11:30am 7.0 2.8 5.5 90 0.7 SSW 17 28 9 15 1027.5 1028.3 0.0
18/11:00am 7.0 3.4 6.7 98 0.1 SSW 15 22 8 12 1027.7 1028.5 0.0
18/10:30am 6.4 2.3 6.1 98 0.1 SSW 17 26 9 14 1027.5 1028.3 0.0
18/10:00am 6.4 1.9 6.1 98 0.1 SSW 19 26 10 14 1027.2 1028.0 0.0
18/09:30am 6.1 2.0 6.0 99 0.0 SSW 17 26 9 14 1026.9 1027.7 0.0
18/09:00am 5.6 1.8 5.6 100 0.0 SSW 15 24 8 13 1026.5 1027.3 4.6
18/08:30am 5.6 1.0 5.6 100 0.0 SSW 19 28 10 15 1026.2 1027.0 4.6
18/08:00am 5.6 1.8 5.6 100 0.0 SSW 15 20 8 11 1025.9 1026.6 4.4
18/07:39am 5.7 1.9 5.7 100 0.0 SSW 15 22 8 12 1025.7 1026.4 4.4
18/07:30am 5.7 1.9 5.7 100 0.0 SSW 15 20 8 11 1025.6 1026.3 4.4
18/07:01am 5.7 1.5 5.7 100 0.0 SSW 17 22 9 12 1025.1 1025.9 4.4
18/07:00am 5.7 1.5 5.7 100 0.0 SSW 17 22 9 12 1025.1 1025.9 4.0
18/06:30am 5.7 1.9 5.7 100 0.0 SSW 15 20 8 11 1024.7 1025.5 4.0
18/06:00am 5.8 1.6 5.8 100 0.0 SSW 17 26 9 14 1024.6 1025.4 4.0
18/05:58am 5.8 1.6 5.8 100 0.0 SSW 17 26 9 14 1024.6 1025.4 4.0
18/05:30am 5.9 1.4 5.9 100 0.0 SSW 19 26 10 14 1024.4 1025.2 4.0
18/05:15am 6.0 1.5 6.0 100 0.0 S 19 28 10 15 1024.2 1025.0 3.8
18/05:08am 6.0 1.5 6.0 100 0.0 SSW 19 28 10 15 1024.1 1024.9 3.8
18/05:00am 6.0 1.5 6.0 100 0.0 SSW 19 28 10 15 1024.1 1024.9 3.8
18/04:30am 6.0 2.2 6.0 100 0.0 SSW 15 20 8 11 1024.0 1024.7 3.8
18/04:00am 6.0 2.2 6.0 100 0.0 SSW 15 24 8 13 1024.0 1024.7 3.6
18/03:37am 6.1 1.6 6.1 100 0.0 SSW 19 24 10 13 1024.0 1024.7 3.2
18/03:36am 6.1 1.6 6.1 100 0.0 SSW 19 24 10 13 1024.0 1024.7 3.2
18/03:30am 6.1 2.0 6.1 100 0.0 SSW 17 24 9 13 1023.9 1024.6 3.2
18/03:17am 6.1 1.6 6.1 100 0.0 SSW 19 28 10 15 1023.9 1024.6 3.2
18/03:07am 6.1 1.6 6.1 100 0.0 SSW 19 28 10 15 1023.9 1024.6 3.0
18/03:00am 6.1 2.4 6.1 100 0.0 SSW 15 22 8 12 1023.9 1024.6 3.0
18/02:30am 6.2 1.7 6.2 100 0.0 SSW 19 24 10 13 1023.7 1024.4 3.0
18/02:00am 6.3 1.8 6.3 100 0.0 SSW 19 30 10 16 1023.5 1024.2 2.4
18/01:45am 6.3 1.7 6.3 100 0.0 SSW 20 33 11 18 1023.2 1023.9 2.4
18/01:30am 6.3 1.7 6.3 100 0.0 SSW 20 32 11 17 1023.1 1023.8 2.4
18/01:00am 6.3 1.3 6.3 100 0.0 SSW 22 30 12 16 1023.1 1023.8 2.4
18/12:30am 6.4 1.4 6.4 100 0.0 SSW 22 33 12 18 1023.2 1023.9 2.4
18/12:00am 6.3 0.9 6.3 100 0.0 SSW 24 35 13 19 1023.0 1023.7 2.4
 
Date/Time
EST
Temp
°C
App
Temp
°C
Dew
Point
°C
Rel
Hum
%
Delta-T
°C
Wind Press
QNH
hPa
Press
MSL
hPa
Rain since
9am
mm
Dir  Spd
km/h
Gust
km/h
Spd
kts
Gust
kts
17/11:30pm 6.4 0.6 6.4 100 0.0 SSW 26 39 14 21 1023.0 1023.7 2.4
17/11:28pm 6.4 0.6 6.4 100 0.0 SSW 26 39 14 21 1023.0 1023.7 2.4
17/11:15pm 6.4 1.0 6.4 100 0.0 SSW 24 33 13 18 1022.8 1023.6 2.4
17/11:00pm 6.4 1.0 6.4 100 0.0 SSW 24 35 13 19 1022.8 1023.6 2.4
17/10:30pm 6.5 0.8 6.5 100 0.0 SSW 26 41 14 22 1022.4 1023.2 2.4
17/10:00pm 6.6 1.3 6.6 100 0.0 SSW 24 37 13 20 1022.3 1023.1 2.4
17/09:30pm 6.6 1.3 6.6 100 0.0 SSW 24 37 13 20 1022.2 1023.0 2.4
17/09:00pm 6.7 0.6 6.7 100 0.0 SSW 28 39 15 21 1021.9 1022.6 2.4
17/08:30pm 6.7 1.4 6.7 100 0.0 SSW 24 33 13 18 1021.9 1022.6 2.4
17/08:00pm 6.8 1.5 6.8 100 0.0 SSW 24 35 13 19 1021.6 1022.3 2.4
17/07:58pm 6.8 1.1 6.8 100 0.0 SSW 26 43 14 23 1021.5 1022.2 2.4
17/07:39pm 6.9 2.0 6.9 100 0.0 SSW 22 33 12 18 1021.3 1022.0 2.4
17/07:30pm 6.9 1.2 6.9 100 0.0 SSW 26 41 14 22 1021.1 1021.8 2.2
17/07:03pm 7.0 1.7 7.0 100 0.0 SSW 24 35 13 19 1020.8 1021.5 2.2
17/07:00pm 7.0 1.7 7.0 100 0.0 SSW 24 39 13 21 1020.7 1021.4 2.2
17/06:49pm 7.0 1.7 7.0 100 0.0 SSW 24 37 13 20 1020.4 1021.2 2.2
17/06:35pm 7.1 1.1 7.1 100 0.0 SSW 28 46 15 25 1020.2 1021.0 2.2
17/06:31pm 7.1 1.1 7.1 100 0.0 SSW 28 46 15 25 1020.1 1020.8 2.2
17/06:30pm 7.1 1.1 7.1 100 0.0 SSW 28 46 15 25 1020.1 1020.8 2.2
17/06:00pm 7.2 2.0 7.1 99 0.0 SSW 24 35 13 19 1019.8 1020.5 1.6
17/05:55pm 7.2 2.3 7.1 99 0.0 SSW 22 33 12 18 1019.6 1020.3 1.6
17/05:30pm 7.4 1.5 7.3 99 0.0 SSW 28 41 15 22 1019.5 1020.2 1.6
17/05:00pm 7.6 1.7 7.3 98 0.1 SSW 28 43 15 23 1019.1 1019.8 1.4
17/04:30pm 7.8 1.9 7.5 98 0.1 SSW 28 43 15 23 1018.7 1019.4 1.4
17/04:00pm 7.7 1.8 7.6 99 0.0 SSW 28 43 15 23 1018.4 1019.1 1.4
17/03:30pm 8.0 2.1 7.7 98 0.1 SSW 28 46 15 25 1017.8 1018.5 1.2
17/03:08pm 8.1 1.3 7.8 98 0.1 SSW 33 57 18 31 1017.3 1018.0 0.8
17/03:00pm 8.1 1.9 7.8 98 0.1 SSW 30 44 16 24 1017.2 1017.9 0.8
17/02:41pm 8.1 1.3 7.8 98 0.1 SSW 33 52 18 28 1016.9 1017.6 0.6
17/02:39pm 8.2 1.4 7.9 98 0.1 SSW 33 52 18 28 1016.8 1017.5 0.6
17/02:30pm 8.6 1.4 7.5 93 0.5 SSW 35 50 19 27 1016.6 1017.3 0.6
17/02:00pm 8.5 1.4 8.1 97 0.2 SSW 35 54 19 29 1016.5 1017.2 0.6
17/01:46pm 8.9 2.4 8.1 95 0.4 SSW 32 50 17 27 1016.4 1017.1 0.6
17/01:30pm 8.7 2.1 7.9 95 0.4 SSW 32 48 17 26 1016.3 1016.9 0.6
17/01:26pm 8.9 2.4 8.0 94 0.4 SSW 32 44 17 24 1016.3 1016.9 0.6
17/01:07pm 8.8 3.1 8.5 98 0.1 SSW 28 46 15 25 1016.2 1016.8 0.6
17/01:00pm 8.8 2.4 8.5 98 0.1 SSW 32 46 17 25 1016.2 1016.8 0.6
17/12:30pm 8.8 2.2 8.5 98 0.1 SSW 33 52 18 28 1016.2 1016.8 0.6
17/12:08pm 8.2 1.1 7.9 98 0.1 SSW 35 57 19 31 1016.4 1017.1 0.6
17/12:00pm 8.0 1.2 7.7 98 0.1 SSW 33 50 18 27 1016.4 1017.1 0.6
17/11:55am 7.9 1.6 7.6 98 0.1 SSW 30 50 16 27 1016.4 1017.1 0.6
17/11:30am 7.8 1.1 7.5 98 0.1 SSW 32 46 17 25 1016.4 1017.1 0.6
17/11:00am 7.4 1.8 7.3 99 0.0 SW 26 43 14 23 1016.4 1017.1 0.6
17/10:30am 7.1 0.7 7.0 99 0.0 SW 30 52 16 28 1016.5 1017.2 0.6
17/10:06am 6.9 0.8 6.8 99 0.0 SW 28 50 15 27 1016.1 1016.7 0.4
17/10:00am 6.9 0.8 6.8 99 0.0 SSW 28 50 15 27 1016.0 1016.6 0.4
17/09:57am 6.9 0.8 6.8 99 0.0 SSW 28 46 15 25 1016.0 1016.6 0.4
17/09:48am 6.9 1.6 6.8 99 0.0 SW 24 35 13 19 1015.8 1016.4 0.4
17/09:30am 6.8 0.3 6.7 99 0.0 SW 30 52 16 28 1015.4 1016.1 0.0
17/09:24am 6.8 0.7 6.7 99 0.0 SW 28 52 15 28 1015.4 1016.1 0.0
17/09:00am 6.8 0.7 6.7 99 0.0 SW 28 43 15 23 1015.0 1015.7 14.4
17/08:30am 6.6 1.2 6.5 99 0.0 SW 24 41 13 22 1014.9 1015.6 14.4
17/08:00am 6.4 1.0 6.3 99 0.0 SW 24 39 13 21 1014.6 1015.3 14.4
17/07:30am 6.1 1.0 6.0 99 0.0 SW 22 32 12 17 1014.2 1014.8 14.4
17/07:00am 5.8 0.7 5.8 100 0.0 SW 22 35 12 19 1013.9 1014.5 14.4
17/06:30am 5.8 0.3 5.8 100 0.0 SW 24 35 13 19 1013.6 1014.2 14.4
17/06:00am 5.8 -0.1 5.8 100 0.0 SW 26 39 14 21 1013.1 1013.8 14.2
17/05:30am 5.8 -0.1 5.8 100 0.0 WSW 26 35 14 19 1012.9 1013.6 14.2
17/05:00am 5.8 1.0 5.8 100 0.0 WSW 20 35 11 19 1012.9 1013.6 14.0
17/04:30am 5.6 1.4 5.6 100 0.0 SW 17 24 9 13 1012.9 1013.6 14.0
17/04:00am 5.3 1.8 5.3 100 0.0 SW 13 22 7 12 1013.0 1013.7 13.4
17/03:44am 5.0 1.0 5.0 100 0.0 WSW 15 20 8 11 1013.0 1013.7 13.0
17/03:30am 4.8 0.0 4.7 99 0.0 WSW 19 26 10 14 1013.1 1013.8 12.2
17/03:24am 4.8 0.0 4.7 99 0.0 WSW 19 28 10 15 1013.1 1013.8 11.8
17/03:00am 4.9 0.5 4.8 99 0.0 SW 17 26 9 14 1013.4 1014.0 10.4
17/02:40am 4.8 0.4 4.7 99 0.0 SW 17 24 9 13 1013.3 1013.9 8.2
17/02:30am 4.6 -0.2 4.5 99 0.0 SW 19 28 10 15 1013.1 1013.8 7.6
17/02:16am 4.5 -0.9 4.4 99 0.0 SSW 22 33 12 18 1013.3 1013.9 6.8
17/02:00am 4.3 -1.5 4.3 100 0.0 SW 24 35 13 19 1013.4 1014.0 5.8
17/01:30am 4.6 -1.5 4.6 100 0.0 WSW 26 35 14 19 1012.8 1013.5 3.0
17/01:16am 4.5 -1.3 4.5 100 0.0 W 24 32 13 17 1012.8 1013.5 2.6
17/01:00am 4.4 -1.4 4.4 100 0.0 W 24 33 13 18 1013.0 1013.7 2.4
17/12:30am 4.3 -1.9 4.3 100 0.0 W 26 33 14 18 1013.3 1013.9 1.6
17/12:00am 4.2 -1.3 4.2 100 0.0 W 22 32 12 17 1013.3 1013.9 1.0
 
Date/Time
EST
Temp
°C
App
Temp
°C
Dew
Point
°C
Rel
Hum
%
Delta-T
°C
Wind Press
QNH
hPa
Press
MSL
hPa
Rain since
9am
mm
Dir  Spd
km/h
Gust
km/h
Spd
kts
Gust
kts
16/11:41pm 4.0 -1.1 4.0 100 0.0 W 20 28 11 15 1013.5 1014.1 0.6
16/11:30pm 3.9 -1.0 3.9 100 0.0 WSW 19 28 10 15 1013.4 1014.0 0.4
16/11:29pm 3.9 -1.0 3.9 100 0.0 WSW 19 28 10 15 1013.4 1014.0 0.4
16/11:00pm 3.7 -1.5 3.7 100 0.0 W 20 28 11 15 1013.4 1014.0 0.4
16/10:30pm 3.6 -1.4 3.6 100 0.0 W 19 26 10 14 1013.3 1013.9 0.4
16/10:00pm 3.4 -0.5 3.4 100 0.0 W 13 17 7 9 1013.4 1014.0 0.4
16/09:30pm 3.4 -0.5 3.4 100 0.0 W 13 17 7 9 1013.3 1013.9 0.4
16/09:00pm 3.2 -1.5 3.2 100 0.0 W 17 22 9 12 1013.5 1014.1 0.4
16/08:30pm 3.1 -1.2 3.0 99 0.0 WSW 15 17 8 9 1013.4 1014.0 0.4
16/08:00pm 3.5 -0.4 3.4 99 0.0 WSW 13 19 7 10 1013.4 1014.0 0.4
16/07:48pm 3.5 -0.4 3.4 99 0.0 WSW 13 19 7 10 1013.4 1014.0 0.4
16/07:35pm 3.5 -0.4 3.4 99 0.0 WSW 13 19 7 10 1013.4 1014.0 0.4
16/07:30pm 3.6 -0.7 3.5 99 0.0 WSW 15 22 8 12 1013.3 1013.9 0.4
16/07:00pm 4.5 -0.3 4.4 99 0.0 W 19 28 10 15 1013.0 1013.7 0.4
16/06:46pm 4.5 0.4 4.4 99 0.0 W 15 20 8 11 1013.0 1013.7 0.4
16/06:30pm 4.7 -0.1 4.4 98 0.1 WSW 19 24 10 13 1012.9 1013.6 0.0
16/06:23pm 4.8 -0.2 4.5 98 0.1 WSW 20 28 11 15 1012.9 1013.6 0.0
16/06:10pm 4.8 1.9 4.5 98 0.1 WSW 9 15 5 8 1012.8 1013.5 0.0
16/06:00pm 4.8 1.5 4.5 98 0.1 WSW 11 15 6 8 1012.8 1013.5 0.0
16/05:30pm 4.9 1.2 4.6 98 0.1 WSW 13 20 7 11 1012.7 1013.4 0.0
16/05:00pm 4.9 0.5 4.6 98 0.1 WSW 17 26 9 14 1012.5 1013.2 0.0
16/04:30pm 5.7 0.7 3.5 86 0.9 WSW 19 32 10 17 1012.5 1013.2 0.0
16/04:00pm 6.6 1.2 4.3 85 1.0 W 22 32 12 17 1012.1 1012.7 0.0
16/03:30pm 6.6 1.4 3.6 81 1.3 W 20 33 11 18 1011.9 1012.5 0.0
16/03:00pm 6.7 -0.8 3.5 80 1.4 W 32 43 17 23 1011.8 1012.4 0.0
16/02:30pm 8.3 1.5 3.2 70 2.2 W 28 44 15 24 1011.6 1012.2 0.0
16/02:22pm 7.8 1.0 3.3 73 2.0 W 28 46 15 25 1011.7 1012.3 0.0
16/02:00pm 7.8 0.8 4.0 77 1.7 W 30 41 16 22 1011.8 1012.4 0.0
16/01:30pm 7.8 1.6 4.2 78 1.6 W 26 43 14 23 1012.0 1012.6 0.0
16/01:00pm 7.7 0.6 3.6 75 1.8 W 30 39 16 21 1012.3 1012.9 0.0
16/12:30pm 7.8 1.7 4.6 80 1.4 W 26 35 14 19 1012.5 1013.2 0.0
16/12:00pm 7.1 0.5 4.2 82 1.3 WNW 28 35 15 19 1012.8 1013.5 0.0
16/11:30am 6.5 -0.1 4.0 84 1.1 WNW 28 35 15 19 1013.3 1013.9 0.0
16/11:00am 6.3 0.2 4.8 90 0.7 WNW 26 33 14 18 1013.6 1014.2 0.0
16/10:52am 7.0 0.7 5.6 91 0.6 WNW 28 33 15 18 1013.5 1014.1 0.0
16/10:41am 6.3 0.6 5.1 92 0.5 WNW 24 32 13 17 1013.6 1014.2 0.0
16/10:30am 6.2 -0.1 5.5 95 0.3 WNW 28 33 15 18 1013.6 1014.2 0.0
16/10:00am 5.2 0.9 5.1 99 0.0 NW 17 22 9 12 1013.7 1014.3 0.0
16/09:30am 3.9 0.1 3.9 100 0.0 N 13 17 7 9 1013.6 1014.2 0.0
16/09:00am 3.2 -1.5 3.2 100 0.0 N 17 20 9 11 1013.5 1014.1 1.6
16/08:30am 2.0 -1.8 2.0 100 0.0 NNE 11 15 6 8 1013.5 1014.1 1.6
16/08:00am 0.6 -3.0 0.6 100 0.0 NNW 9 11 5 6 1013.3 1013.9 1.6
16/07:30am 0.8 -3.5 0.7 99 0.0 NNW 13 17 7 9 1013.0 1013.7 1.6
16/07:00am 2.0 -2.9 1.9 99 0.0 N 17 19 9 10 1012.9 1013.6 1.6
16/06:30am 2.9 -1.5 2.8 99 0.0 N 15 17 8 9 1012.8 1013.5 1.6
16/06:00am 3.2 -1.9 3.1 99 0.0 N 19 24 10 13 1012.6 1013.3 1.6
16/05:30am 3.1 -0.9 3.0 99 0.0 N 13 17 7 9 1012.6 1013.3 1.6
16/05:00am 3.3 -1.4 3.2 99 0.0 NNW 17 19 9 10 1012.7 1013.4 1.6
16/04:30am 3.4 -1.3 3.1 98 0.1 N 17 20 9 11 1012.6 1013.3 1.6
16/04:00am 3.7 -1.0 3.4 98 0.1 N 17 19 9 10 1012.6 1013.3 1.6
16/03:30am 3.6 -0.7 3.3 98 0.1 N 15 17 8 9 1012.8 1013.5 1.6
16/03:00am 3.1 -1.7 2.7 97 0.2 NNW 17 20 9 11 1012.9 1013.6 1.6
16/02:30am 3.2 -1.6 2.5 95 0.3 NW 17 20 9 11 1012.8 1013.5 1.6
16/02:00am 3.5 -1.8 3.1 97 0.2 WNW 20 26 11 14 1012.7 1013.4 1.6
16/01:30am 3.5 -2.1 3.2 98 0.1 NW 22 28 12 15 1012.6 1013.3 1.6
16/01:00am 3.4 -1.3 3.1 98 0.1 NW 17 20 9 11 1012.8 1013.5 1.6
16/12:30am 3.5 -1.8 3.2 98 0.1 WNW 20 26 11 14 1012.8 1013.5 1.6
16/12:00am 3.6 -2.0 3.3 98 0.1 NW 22 30 12 16 1012.9 1013.6 1.6
 
Date/Time
EST
Temp
°C
App
Temp
°C
Dew
Point
°C
Rel
Hum
%
Delta-T
°C
Wind Press
QNH
hPa
Press
MSL
hPa
Rain since
9am
mm
Dir  Spd
km/h
Gust
km/h
Spd
kts
Gust
kts
15/11:30pm 3.5 -1.8 3.2 98 0.1 WNW 20 26 11 14 1013.1 1013.8 1.6
15/11:00pm 3.9 -1.7 3.6 98 0.1 NW 22 28 12 15 1013.0 1013.7 1.6
15/10:30pm 4.6 -2.1 3.7 94 0.4 WNW 28 35 15 19 1012.8 1013.5 1.6
15/10:00pm 4.9 -1.7 4.3 96 0.3 WNW 28 37 15 20 1012.8 1013.5 1.6

Other Formats:

Comma delimited format used in spreadsheet applications
http://www.bom.gov.au/fwo/IDV60801/IDV60801.94852.axf

JavaScript Object Notation format (JSON) in row-major order
http://www.bom.gov.au/fwo/IDV60801/IDV60801.94852.json